Time;durP1;ratioP1;P1;durP2;ratioP2;P2;SDS_P1;SDS_P2;PMS_P1;PMS_P2;Temp;Humidity;BMP_temperature;BMP_pressure;BME280_temperature;BME280_humidity;BME280_pressure;Samples;Min_cycle;Max_cycle;Signal;HPM_P1;HPM_P2
2024/02/15 00:01:34;;;;;;;15.13;8.95;;;;;;;7.02;100.00;99230.19;6232729;22;20007;-65
2024/02/15 00:03:59;;;;;;;16.25;8.60;;;;;;;7.00;100.00;99241.59;6231715;22;20115;-65
2024/02/15 00:06:24;;;;;;;13.85;8.30;;;;;;;6.92;100.00;99239.53;6234824;22;20094;-67
2024/02/15 00:08:52;;;;;;;14.10;8.75;;;;;;;6.91;100.00;99230.13;6205355;22;20015;-66
2024/02/15 00:11:17;;;;;;;14.40;8.68;;;;;;;6.88;100.00;99240.66;6209474;22;20507;-67
2024/02/15 00:13:45;;;;;;;14.45;8.65;;;;;;;6.79;100.00;99224.06;6257124;22;20014;-67
2024/02/15 00:16:14;;;;;;;14.57;8.90;;;;;;;6.79;100.00;99249.91;6235090;22;20079;-66
2024/02/15 00:18:40;;;;;;;17.48;9.82;;;;;;;6.54;100.00;99217.97;6206827;22;20097;-69
2024/02/15 00:21:05;;;;;;;14.95;9.30;;;;;;;6.75;100.00;99258.78;6209690;22;20046;-66
2024/02/15 00:23:32;;;;;;;16.55;9.90;;;;;;;6.73;100.00;99227.03;6205677;22;20016;-66
2024/02/15 00:25:57;;;;;;;15.85;9.35;;;;;;;6.73;100.00;99240.81;6231102;22;20099;-66
2024/02/15 00:28:23;;;;;;;14.35;9.18;;;;;;;6.61;100.00;99238.22;6234107;22;20011;-66
2024/02/15 00:30:51;;;;;;;15.90;8.98;;;;;;;6.49;100.00;99247.63;6204596;22;20015;-66
2024/02/15 00:33:17;;;;;;;14.15;8.85;;;;;;;6.27;100.00;99188.84;6234966;22;20371;-66
2024/02/15 00:35:44;;;;;;;14.48;8.82;;;;;;;6.61;100.00;99240.78;6255888;22;20004;-67
2024/02/15 00:38:10;;;;;;;16.05;9.05;;;;;;;6.67;100.00;99248.16;6234653;22;20007;-65
2024/02/15 00:40:38;;;;;;;16.92;8.90;;;;;;;6.58;100.00;99235.84;6231490;22;20023;-66
2024/02/15 00:43:04;;;;;;;16.20;8.88;;;;;;;6.28;100.00;99232.66;6231378;22;20447;-67
2024/02/15 00:45:32;;;;;;;16.88;9.15;;;;;;;6.19;100.00;99227.25;6206288;22;20038;-66
2024/02/15 00:47:59;;;;;;;17.25;9.40;;;;;;;6.18;100.00;99220.44;6205534;22;20019;-65
2024/02/15 00:50:25;;;;;;;16.35;9.40;;;;;;;5.71;100.00;99173.53;6208445;22;20012;-66
2024/02/15 00:52:52;;;;;;;14.80;9.20;;;;;;;6.13;100.00;99215.56;6206972;22;20008;-66
2024/02/15 00:55:19;;;;;;;16.30;9.50;;;;;;;6.16;100.00;99230.88;6205919;22;20070;-67
2024/02/15 00:57:44;;;;;;;16.17;9.32;;;;;;;6.13;100.00;99228.47;6206985;22;20007;-66
2024/02/15 01:00:12;;;;;;;19.02;9.05;;;;;;;6.13;100.00;99229.31;6206668;22;20015;-69
2024/02/15 01:02:43;;;;;;;15.55;9.13;;;;;;;5.91;100.00;99182.56;6207122;22;20012;-67
2024/02/15 01:05:09;;;;;;;18.10;10.38;;;;;;;6.19;100.00;99225.50;6232369;22;20015;-66
2024/02/15 01:07:35;;;;;;;15.27;9.35;;;;;;;6.19;100.00;99219.50;6207506;22;20044;-66
2024/02/15 01:10:03;;;;;;;17.42;9.80;;;;;;;6.01;100.00;99212.06;6207354;22;20421;-66
2024/02/15 01:12:29;;;;;;;18.33;9.73;;;;;;;6.02;100.00;99213.69;6208167;22;20027;-67
2024/02/15 01:14:56;;;;;;;17.17;10.18;;;;;;;5.98;100.00;99194.19;6207970;22;20011;-66
2024/02/15 01:17:21;;;;;;;18.33;9.45;;;;;;;5.73;100.00;99156.22;6206663;22;20159;-67
2024/02/15 01:19:47;;;;;;;16.00;9.35;;;;;;;6.06;100.00;99220.31;6231774;22;20484;-67
2024/02/15 01:22:12;;;;;;;16.33;9.68;;;;;;;6.01;100.00;99212.06;6231451;22;20008;-66
2024/02/15 01:24:38;;;;;;;17.63;9.82;;;;;;;5.83;100.00;99208.06;6206355;22;20129;-65
2024/02/15 01:27:03;;;;;;;17.27;9.27;;;;;;;5.88;100.00;99209.41;6209136;22;20659;-68
2024/02/15 01:29:31;;;;;;;17.45;9.32;;;;;;;6.06;100.00;99216.91;6232735;22;20011;-65
2024/02/15 01:31:56;;;;;;;18.08;8.90;;;;;;;6.07;100.00;99218.56;6233844;22;20007;-65
2024/02/15 01:34:22;;;;;;;15.98;9.32;;;;;;;6.14;100.00;99227.56;6231840;22;20007;-66
2024/02/15 01:36:49;;;;;;;14.35;9.15;;;;;;;6.09;100.00;99234.78;6208224;22;20080;-66
2024/02/15 01:39:15;;;;;;;16.98;9.52;;;;;;;6.03;100.00;99217.13;6235305;22;20020;-66
2024/02/15 01:41:40;;;;;;;16.73;9.63;;;;;;;6.06;100.00;99212.59;6257357;22;20012;-65
2024/02/15 01:44:10;;;;;;;19.55;9.90;;;;;;;6.07;100.00;99210.81;6207545;22;20085;-67
2024/02/15 01:46:36;;;;;;;18.40;8.95;;;;;;;6.15;100.00;99217.13;6207073;22;20015;-66
2024/02/15 01:49:01;;;;;;;18.20;9.55;;;;;;;6.14;100.00;99214.66;6232860;22;20169;-69
2024/02/15 01:51:29;;;;;;;16.80;9.68;;;;;;;6.15;100.00;99211.13;6206310;22;20025;-66
2024/02/15 01:53:55;;;;;;;17.15;9.20;;;;;;;6.17;100.00;99209.28;6233433;22;20015;-65
2024/02/15 01:56:22;;;;;;;16.10;8.75;;;;;;;6.16;100.00;99199.88;6231975;22;20011;-68
2024/02/15 01:58:47;;;;;;;14.85;8.57;;;;;;;6.06;100.00;99194.50;6234268;22;20008;-67
2024/02/15 02:01:13;;;;;;;14.27;8.73;;;;;;;6.08;100.00;99204.75;6232795;22;20008;-66
2024/02/15 02:03:39;;;;;;;15.90;9.25;;;;;;;6.03;100.00;99205.03;6204488;22;20058;-68
2024/02/15 02:06:04;;;;;;;16.50;9.20;;;;;;;6.08;100.00;99204.75;6207226;22;20508;-66
2024/02/15 02:08:35;;;;;;;15.43;9.35;;;;;;;5.97;100.00;99190.78;6231217;22;20007;-67
2024/02/15 02:11:03;;;;;;;17.08;9.80;;;;;;;5.91;100.00;99201.47;6234700;22;20007;-65
2024/02/15 02:13:29;;;;;;;19.67;10.55;;;;;;;5.73;100.00;99162.22;6204691;22;20082;-67
2024/02/15 02:15:55;;;;;;;19.27;11.43;;;;;;;5.92;100.00;99197.13;6233463;22;20724;-66
2024/02/15 02:18:24;;;;;;;20.08;11.15;;;;;;;5.94;100.00;99190.94;6234763;22;20004;-68
2024/02/15 02:20:53;;;;;;;16.00;10.05;;;;;;;5.73;100.00;99188.03;6231516;22;20026;-66
2024/02/15 02:23:26;;;;;;;19.30;9.57;;;;;;;5.43;100.00;99141.00;6261256;22;20095;-67
2024/02/15 02:25:51;;;;;;;16.45;8.68;;;;;;;5.74;100.00;99179.34;6230040;22;20702;-66
2024/02/15 02:28:21;;;;;;;13.00;8.05;;;;;;;5.76;100.00;99176.66;6208453;22;20008;-66
2024/02/15 02:30:46;;;;;;;15.23;8.60;;;;;;;5.70;100.00;99180.47;6229349;22;20054;-66
2024/02/15 02:33:21;;;;;;;13.95;8.70;;;;;;;5.55;100.00;99182.28;6208721;22;20425;-67
2024/02/15 02:35:52;;;;;;;12.10;7.63;;;;;;;5.62;100.00;99180.13;6206078;22;20003;-69
2024/02/15 02:38:17;;;;;;;15.60;9.07;;;;;;;5.54;100.00;99178.03;6233155;22;20053;-66
2024/02/15 02:40:45;;;;;;;17.67;8.70;;;;;;;5.39;100.00;99177.28;6207710;22;20023;-67
2024/02/15 02:43:10;;;;;;;16.77;8.98;;;;;;;5.45;100.00;99182.97;6206767;22;20023;-66
2024/02/15 02:45:36;;;;;;;21.63;8.95;;;;;;;5.43;100.00;99179.69;6209284;22;20011;-65
2024/02/15 02:48:01;;;;;;;19.60;8.93;;;;;;;5.42;100.00;99163.38;6230140;22;20019;-66
2024/02/15 02:50:27;;;;;;;18.08;8.77;;;;;;;5.42;100.00;99173.69;6232520;22;20008;-64
2024/02/15 02:52:52;;;;;;;19.83;9.43;;;;;;;5.39;100.00;99182.44;6232102;22;20007;-67
2024/02/15 02:55:18;;;;;;;17.25;9.38;;;;;;;5.44;100.00;99182.16;6208225;22;20016;-65
2024/02/15 02:57:46;;;;;;;18.15;9.27;;;;;;;5.44;100.00;99176.16;6207274;22;20008;-67
2024/02/15 03:00:15;;;;;;;21.23;9.57;;;;;;;5.47;100.00;99184.53;6231698;22;20575;-65
2024/02/15 03:02:45;;;;;;;23.33;11.05;;;;;;;5.50;100.00;99191.25;6234318;22;20309;-65
2024/02/15 03:05:15;;;;;;;19.65;10.52;;;;;;;5.48;100.00;99170.72;6202462;22;20012;-69
2024/02/15 03:07:44;;;;;;;18.73;9.90;;;;;;;5.40;100.00;99170.38;6205510;22;20016;-67
2024/02/15 03:10:13;;;;;;;18.90;10.07;;;;;;;5.46;100.00;99166.56;6203789;22;20035;-65
2024/02/15 03:12:38;;;;;;;21.63;10.45;;;;;;;5.40;100.00;99162.63;6236503;22;20007;-65
2024/02/15 03:15:11;;;;;;;18.25;9.85;;;;;;;5.47;100.00;99170.81;6236471;22;20089;-65
2024/02/15 03:17:40;;;;;;;17.50;9.40;;;;;;;5.45;100.00;99165.75;6211450;22;20018;-65
2024/02/15 03:20:23;;;;;;;16.45;8.93;;;;;;;5.45;100.00;99176.06;6210405;22;20018;-65
2024/02/15 03:22:59;;;;;;;18.65;8.15;;;;;;;5.23;100.00;99168.88;6237020;22;20030;-65
2024/02/15 03:25:26;;;;;;;17.67;8.65;;;;;;;5.19;100.00;99163.06;6236630;22;20003;-65
2024/02/15 03:27:53;;;;;;;16.92;8.38;;;;;;;5.22;100.00;99176.69;6211359;22;20012;-67
2024/02/15 03:30:19;;;;;;;19.42;9.55;;;;;;;5.14;100.00;99167.69;6211143;22;20015;-66
2024/02/15 03:32:48;;;;;;;18.30;9.88;;;;;;;5.01;100.00;99156.50;6235895;22;20010;-66
2024/02/15 03:35:15;;;;;;;16.27;9.27;;;;;;;5.12;100.00;99174.69;6212195;22;20089;-66
2024/02/15 03:37:43;;;;;;;17.88;9.55;;;;;;;5.12;100.00;99163.56;6212706;22;20015;-66
2024/02/15 03:40:09;;;;;;;18.55;9.30;;;;;;;5.15;100.00;99174.50;6210150;22;20029;-67
2024/02/15 03:42:38;;;;;;;16.90;8.43;;;;;;;5.12;100.00;99158.41;6210495;22;20114;-67
2024/02/15 03:45:06;;;;;;;14.68;8.65;;;;;;;5.00;100.00;99149.69;6211134;22;20900;-67
2024/02/15 03:47:33;;;;;;;17.88;8.40;;;;;;;5.06;100.00;99156.22;6235741;22;20016;-66
2024/02/15 03:49:59;;;;;;;19.55;8.65;;;;;;;5.09;100.00;99163.75;6236365;22;20188;-68
2024/02/15 03:52:24;;;;;;;20.65;9.65;;;;;;;4.97;100.00;99157.63;6210246;22;20030;-65
2024/02/15 03:54:50;;;;;;;18.23;9.02;;;;;;;5.07;100.00;99161.25;6210412;22;20011;-67
2024/02/15 03:57:20;;;;;;;15.27;8.98;;;;;;;5.12;100.00;99168.72;6208966;22;20022;-67
2024/02/15 03:59:50;;;;;;;16.98;8.98;;;;;;;4.81;100.00;99125.06;6211423;22;20039;-66
2024/02/15 04:02:18;;;;;;;15.40;8.60;;;;;;;5.08;100.00;99165.50;6209577;22;20033;-66
2024/02/15 04:04:46;;;;;;;15.57;8.73;;;;;;;5.03;100.00;99162.38;6236009;22;20050;-66
2024/02/15 04:07:16;;;;;;;17.27;9.57;;;;;;;5.05;100.00;99173.41;6231756;22;20007;-69
2024/02/15 04:09:42;;;;;;;20.55;11.32;;;;;;;5.05;100.00;99170.84;6207999;22;20105;-69
2024/02/15 04:12:08;;;;;;;18.88;10.85;;;;;;;5.04;100.00;99171.78;6209655;22;20023;-66
2024/02/15 04:14:38;;;;;;;18.05;8.80;;;;;;;4.60;100.00;99119.50;6233991;22;20081;-68
2024/02/15 04:17:04;;;;;;;13.38;7.80;;;;;;;4.90;100.00;99182.13;6234392;22;20007;-66
2024/02/15 04:19:32;;;;;;;11.93;7.15;;;;;;;4.74;100.00;99182.22;6208823;22;20015;-66
2024/02/15 04:22:04;;;;;;;12.05;7.65;;;;;;;4.82;100.00;99178.25;6207852;22;20033;-65
2024/02/15 04:24:29;;;;;;;12.50;7.70;;;;;;;4.88;100.00;99178.81;6235612;22;20011;-67
2024/02/15 04:26:55;;;;;;;13.95;8.25;;;;;;;4.67;100.00;99134.56;6262262;22;20007;-67
2024/02/15 04:29:20;;;;;;;12.23;7.93;;;;;;;4.91;100.00;99173.44;6232741;22;20469;-66
2024/02/15 04:31:49;;;;;;;16.85;8.57;;;;;;;4.65;100.00;99131.28;6208618;22;20019;-67
2024/02/15 04:34:19;;;;;;;14.68;8.40;;;;;;;4.87;100.00;99164.25;6209663;22;20015;-67
2024/02/15 04:36:53;;;;;;;14.27;8.43;;;;;;;4.50;100.00;99120.16;6209592;22;20041;-67
2024/02/15 04:39:30;;;;;;;13.27;7.90;;;;;;;4.66;100.00;99172.41;6209444;22;20016;-66
2024/02/15 04:41:58;;;;;;;15.57;8.48;;;;;;;4.78;100.00;99171.66;6238616;22;20007;-66
2024/02/15 04:44:27;;;;;;;14.27;8.35;;;;;;;4.86;100.00;99176.34;6235177;22;20007;-67
2024/02/15 04:46:53;;;;;;;14.68;8.43;;;;;;;4.74;100.00;99174.50;6210274;22;20012;-68
2024/02/15 04:49:19;;;;;;;14.68;8.85;;;;;;;4.53;100.00;99133.69;6210198;22;20015;-66
2024/02/15 04:51:44;;;;;;;15.60;9.57;;;;;;;4.71;100.00;99172.94;6209812;22;20012;-66
2024/02/15 04:54:13;;;;;;;15.07;9.23;;;;;;;4.66;100.00;99158.69;6262367;22;20003;-67
2024/02/15 04:56:40;;;;;;;15.30;9.18;;;;;;;4.70;100.00;99160.97;6210979;22;20085;-69
2024/02/15 04:59:08;;;;;;;15.90;9.10;;;;;;;4.73;100.00;99168.53;6205973;22;20003;-68
2024/02/15 05:01:34;;;;;;;14.52;10.70;;;;;;;4.58;100.00;99164.28;6205298;22;20022;-68
2024/02/15 05:04:00;;;;;;;15.40;10.57;;;;;;;4.52;100.00;99167.25;6230257;22;20101;-67
2024/02/15 05:06:29;;;;;;;19.75;11.15;;;;;;;4.64;100.00;99166.50;6203969;22;20040;-68
2024/02/15 05:08:59;;;;;;;14.45;10.05;;;;;;;4.57;100.00;99160.06;6202562;22;20106;-66
2024/02/15 05:11:28;;;;;;;;;;;;;;;4.70;100.00;99166.13;6207907;22;20483;-68
2024/02/15 05:13:57;;;;;;;13.35;8.65;;;;;;;4.67;100.00;99162.91;6204268;22;19988;-65
2024/02/15 05:16:24;;;;;;;16.08;9.00;;;;;;;4.56;100.00;99177.28;6206745;22;20016;-69
2024/02/15 05:18:49;;;;;;;15.73;9.38;;;;;;;4.56;100.00;99179.88;6206163;22;20020;-67
2024/02/15 05:21:17;;;;;;;18.08;9.95;;;;;;;4.57;100.00;99166.06;6206579;22;20007;-68
2024/02/15 05:23:45;;;;;;;16.05;9.68;;;;;;;4.60;100.00;99168.44;6231395;22;20012;-69
2024/02/15 05:26:12;;;;;;;16.40;10.05;;;;;;;4.26;100.00;99119.91;6206940;22;20043;-66
2024/02/15 05:28:40;;;;;;;13.32;9.35;;;;;;;4.57;100.00;99171.19;6232090;22;20011;-67
2024/02/15 05:31:17;;;;;;;15.13;9.77;;;;;;;4.63;100.00;99170.00;6205420;22;20007;-66
2024/02/15 05:33:54;;;;;;;16.17;9.77;;;;;;;4.58;100.00;99177.16;6207526;22;20016;-67
2024/02/15 05:36:25;;;;;;;15.73;9.88;;;;;;;4.31;100.00;99167.63;6233711;22;20011;-66
2024/02/15 05:38:57;;;;;;;15.48;9.65;;;;;;;4.36;100.00;99175.06;6208415;22;20046;-67
2024/02/15 05:41:22;;;;;;;13.98;9.38;;;;;;;4.43;100.00;99171.19;6207691;22;20440;-68
2024/02/15 05:43:52;;;;;;;18.63;11.98;;;;;;;4.49;100.00;99181.16;6260032;22;20004;-67
2024/02/15 05:46:18;;;;;;;21.23;13.18;;;;;;;4.48;100.00;99176.91;6234384;22;20034;-65
2024/02/15 05:48:44;;;;;;;23.00;15.75;;;;;;;4.43;100.00;99166.06;6232521;22;20484;-68
2024/02/15 05:51:09;;;;;;;24.50;16.90;;;;;;;4.32;100.00;99164.13;6207198;22;20016;-66
2024/02/15 05:53:38;;;;;;;24.77;16.75;;;;;;;4.34;100.00;99167.41;6231293;22;20086;-66
2024/02/15 05:56:08;;;;;;;25.03;17.87;;;;;;;4.35;100.00;99176.00;6206855;22;20011;-65
2024/02/15 05:58:37;;;;;;;24.85;16.30;;;;;;;4.29;100.00;99161.75;6206590;22;20242;-65
2024/02/15 06:01:06;;;;;;;22.55;16.23;;;;;;;4.35;100.00;99170.84;6203958;22;20111;-67
2024/02/15 06:03:33;;;;;;;23.90;16.80;;;;;;;4.08;100.00;99119.25;6204087;22;20019;-67
2024/02/15 06:06:06;;;;;;;23.42;16.50;;;;;;;4.26;100.00;99163.66;6207912;22;20153;-66
2024/02/15 06:08:35;;;;;;;23.20;16.02;;;;;;;3.99;100.00;99111.16;6231442;22;20011;-67
2024/02/15 06:11:01;;;;;;;22.67;15.85;;;;;;;4.32;100.00;99168.44;6207261;22;20007;-67
2024/02/15 06:13:29;;;;;;;20.70;13.70;;;;;;;4.34;100.00;99162.28;6232534;22;20011;-66
2024/02/15 06:15:57;;;;;;;22.17;15.63;;;;;;;4.32;100.00;99163.28;6206991;22;20496;-67
2024/02/15 06:18:29;;;;;;;19.92;14.23;;;;;;;4.39;100.00;99167.16;6231458;22;20011;-67
2024/02/15 06:21:02;;;;;;;21.75;15.10;;;;;;;4.38;100.00;99170.63;6204549;22;20008;-67
2024/02/15 06:23:29;;;;;;;20.85;13.70;;;;;;;4.01;100.00;99117.03;6205052;22;20128;-69
2024/02/15 06:25:58;;;;;;;20.27;13.57;;;;;;;4.37;100.00;99177.53;6257472;22;20008;-66
2024/02/15 06:39:42;;;;;;;17.48;10.93;;;;;;;4.42;100.00;99178.09;6233007;22;20799;-64
2024/02/15 06:42:15;;;;;;;19.63;12.57;;;;;;;4.42;100.00;99187.59;6230434;22;20030;-64
2024/02/15 06:44:41;;;;;;;23.35;15.20;;;;;;;4.08;100.00;99124.41;6206497;22;20494;-66
2024/02/15 06:47:10;;;;;;;19.25;14.52;;;;;;;4.38;100.00;99192.09;6232483;22;20489;-64
2024/02/15 06:49:39;;;;;;;19.95;12.80;;;;;;;4.04;100.00;99139.19;6232464;22;20077;-65
2024/02/15 06:52:11;;;;;;;21.10;12.52;;;;;;;4.29;100.00;99179.75;6208375;22;20225;-66
2024/02/15 06:54:38;;;;;;;21.35;12.70;;;;;;;4.06;100.00;99149.41;6233844;22;20008;-65
2024/02/15 06:57:04;;;;;;;19.90;12.07;;;;;;;4.36;100.00;99193.94;6206693;22;20027;-67
2024/02/15 06:59:31;;;;;;;18.52;11.23;;;;;;;4.02;100.00;99134.13;6207842;22;20169;-65
2024/02/15 07:02:00;;;;;;;17.98;11.07;;;;;;;4.22;100.00;99156.13;6260503;22;20742;-66
2024/02/15 07:04:28;;;;;;;20.77;11.65;;;;;;;4.42;100.00;99188.41;6235221;22;20031;-66
2024/02/15 07:06:56;;;;;;;18.90;11.73;;;;;;;4.10;100.00;99132.84;6207501;22;20409;-67
2024/02/15 07:09:24;;;;;;;20.52;11.27;;;;;;;4.52;100.00;99193.81;6205121;22;20716;-66
2024/02/15 07:11:50;;;;;;;18.25;10.40;;;;;;;4.48;100.00;99192.34;6230789;22;20872;-66
2024/02/15 07:14:16;;;;;;;18.05;11.48;;;;;;;4.55;100.00;99200.56;6232797;22;20414;-66
2024/02/15 07:16:49;;;;;;;20.35;11.82;;;;;;;4.57;100.00;99202.09;6232375;22;20107;-66
2024/02/15 07:19:18;;;;;;;18.05;10.70;;;;;;;4.56;100.00;99202.19;6202431;23;20035;-66
2024/02/15 07:21:44;;;;;;;19.23;11.55;;;;;;;4.65;100.00;99200.81;6202188;23;20090;-66
2024/02/15 07:24:09;;;;;;;19.77;10.52;;;;;;;4.73;100.00;99214.09;6206042;22;20007;-66
2024/02/15 07:26:36;;;;;;;20.15;9.75;;;;;;;4.74;100.00;99208.00;6231796;22;20012;-66
2024/02/15 07:29:05;;;;;;;15.63;10.10;;;;;;;4.80;100.00;99205.88;6207727;22;20011;-67
2024/02/15 07:31:31;;;;;;;19.73;10.88;;;;;;;4.76;100.00;99185.53;6207446;22;20007;-66
2024/02/15 07:33:59;;;;;;;16.25;9.43;;;;;;;4.92;100.00;99206.03;6207763;22;20011;-65
2024/02/15 07:36:25;;;;;;;15.27;8.77;;;;;;;4.97;100.00;99204.84;6223001;22;20011;-68
2024/02/15 07:38:52;;;;;;;14.43;9.13;;;;;;;5.05;100.00;99198.38;6202735;22;20659;-67
2024/02/15 07:41:21;;;;;;;14.70;7.35;;;;;;;5.12;100.00;99204.81;6206065;22;20097;-66
2024/02/15 07:43:47;;;;;;;15.10;8.43;;;;;;;5.17;100.00;99206.19;6207170;22;20010;-69
2024/02/15 07:46:16;;;;;;;13.50;6.57;;;;;;;5.13;100.00;99209.88;6205072;22;20709;-66
2024/02/15 07:48:45;;;;;;;12.52;6.50;;;;;;;5.20;100.00;99216.31;6231135;22;20018;-64
2024/02/15 07:51:20;;;;;;;10.90;5.70;;;;;;;5.26;100.00;99212.53;6206719;22;20102;-65
2024/02/15 07:53:49;;;;;;;11.00;5.80;;;;;;;5.32;100.00;99209.53;6206461;22;20018;-67
2024/02/15 07:56:17;;;;;;;10.13;5.10;;;;;;;5.30;100.00;99208.00;6205669;22;20018;-66
2024/02/15 07:58:47;;;;;;;9.73;5.32;;;;;;;5.20;100.00;99176.78;6206926;22;20015;-64
2024/02/15 08:01:20;;;;;;;8.65;5.35;;;;;;;5.48;100.00;99199.09;6220884;22;20010;-65
2024/02/15 08:03:46;;;;;;;9.27;5.55;;;;;;;5.59;100.00;99198.41;6207596;22;20683;-64
2024/02/15 08:06:18;;;;;;;9.82;5.43;;;;;;;5.64;100.00;99182.63;6207572;22;20099;-65
2024/02/15 08:08:46;;;;;;;9.45;5.60;;;;;;;5.68;100.00;99169.44;6204437;22;20004;-65
2024/02/15 08:11:15;;;;;;;9.07;5.07;;;;;;;5.44;100.00;99120.25;6206931;22;20011;-65
2024/02/15 08:13:45;;;;;;;9.02;5.22;;;;;;;5.75;100.00;99172.44;6231858;22;20011;-67
2024/02/15 08:16:12;;;;;;;7.90;4.80;;;;;;;5.29;100.00;99127.22;6207009;22;20012;-65
2024/02/15 08:18:38;;;;;;;8.27;4.72;;;;;;;5.69;100.00;99171.06;6232266;22;20470;-67
2024/02/15 08:21:08;;;;;;;8.80;5.03;;;;;;;5.71;100.00;99183.88;6233290;22;20026;-64
2024/02/15 08:23:38;;;;;;;8.95;4.60;;;;;;;5.58;100.00;99187.28;6234389;22;20010;-65
2024/02/15 08:26:05;;;;;;;10.68;4.60;;;;;;;5.65;100.00;99179.13;6205184;22;20195;-64
2024/02/15 08:28:30;;;;;;;10.10;4.65;;;;;;;5.72;100.00;99182.97;6206432;22;20030;-65
2024/02/15 08:30:58;;;;;;;9.10;4.78;;;;;;;5.74;100.00;99183.69;6230791;22;20012;-67
2024/02/15 08:33:28;;;;;;;9.65;5.03;;;;;;;5.81;100.00;99179.78;6255741;22;20102;-68
2024/02/15 08:35:55;;;;;;;10.85;5.72;;;;;;;5.66;100.00;99122.25;6224618;22;20012;-66
2024/02/15 08:38:23;;;;;;;9.73;5.75;;;;;;;6.02;100.00;99167.22;6200235;22;20016;-65
2024/02/15 08:40:49;;;;;;;9.38;5.70;;;;;;;6.13;100.00;99182.00;6199165;22;20196;-67
2024/02/15 08:43:15;;;;;;;7.88;4.93;;;;;;;5.88;100.00;99188.78;6201387;22;20448;-66
2024/02/15 08:45:41;;;;;;;7.03;4.40;;;;;;;6.00;100.00;99176.00;6225399;22;20462;-65
2024/02/15 08:48:10;;;;;;;8.30;4.30;;;;;;;6.10;100.00;99175.28;6200374;22;20359;-67
2024/02/15 08:50:35;;;;;;;8.27;4.82;;;;;;;5.77;100.00;99118.97;6252536;22;20000;-66
2024/02/15 08:53:06;;;;;;;8.95;4.90;;;;;;;5.85;100.00;99121.84;6199047;22;20171;-66
2024/02/15 08:55:32;;;;;;;8.02;4.40;;;;;;;6.12;100.00;99167.44;6200367;22;20057;-67
2024/02/15 08:57:59;;;;;;;8.70;5.15;;;;;;;6.15;100.00;99164.66;6221023;22;20007;-67
2024/02/15 09:00:26;;;;;;;8.60;4.72;;;;;;;6.25;100.00;99154.53;6252723;22;20011;-66
2024/02/15 09:02:52;;;;;;;13.52;5.10;;;;;;;6.39;100.00;99151.00;6199058;22;20392;-68
2024/02/15 09:05:18;;;;;;;8.05;5.35;;;;;;;6.30;100.00;99132.63;6200065;22;20015;-67
2024/02/15 09:07:47;;;;;;;8.25;4.82;;;;;;;6.43;100.00;99148.13;6199535;22;20015;-66
2024/02/15 09:10:14;;;;;;;10.43;5.43;;;;;;;6.57;100.00;99147.19;6225646;22;20083;-65
2024/02/15 09:12:41;;;;;;;8.35;4.63;;;;;;;6.46;100.00;99141.91;6199374;22;20016;-66
2024/02/15 09:15:08;;;;;;;8.27;4.95;;;;;;;6.59;100.00;99145.31;6224489;22;20163;-66
2024/02/15 09:17:38;;;;;;;8.25;4.47;;;;;;;6.52;100.00;99149.25;6200389;22;20446;-66
2024/02/15 09:20:19;;;;;;;9.38;4.50;;;;;;;6.41;100.00;99128.50;6225379;22;20764;-65
2024/02/15 09:22:48;;;;;;;9.50;4.93;;;;;;;6.20;100.00;99094.63;6202247;22;20057;-68
2024/02/15 09:25:19;;;;;;;7.38;4.53;;;;;;;6.61;100.00;99150.34;6202023;22;20402;-64
2024/02/15 09:27:47;;;;;;;8.70;5.05;;;;;;;6.26;100.00;99094.19;6225715;22;20007;-68
2024/02/15 09:30:15;;;;;;;7.30;4.78;;;;;;;6.54;100.00;99137.06;6182705;23;20087;-66
2024/02/15 09:32:41;;;;;;;9.23;4.43;;;;;;;6.64;100.00;99153.53;6219074;22;20012;-67
2024/02/15 09:35:11;;;;;;;8.60;5.35;;;;;;;6.65;100.00;99155.22;6226590;22;20586;-67
2024/02/15 09:37:50;;;;;;;8.88;4.90;;;;;;;6.60;100.00;99134.03;6218355;22;20471;-65
2024/02/15 09:40:19;;;;;;;7.18;4.97;;;;;;;6.80;100.00;99150.72;6201402;22;20023;-65
2024/02/15 09:42:45;;;;;;;9.95;5.03;;;;;;;6.73;100.00;99144.34;6252715;22;20007;-67
2024/02/15 09:45:15;;;;;;;8.75;5.03;;;;;;;6.72;100.00;99150.47;6200470;22;20018;-67
2024/02/15 09:47:42;;;;;;;8.77;5.28;;;;;;;6.54;100.00;99100.88;6226735;22;20444;-67
2024/02/15 09:50:08;;;;;;;8.70;5.00;;;;;;;6.91;100.00;99158.56;6199890;22;20543;-66
2024/02/15 09:52:38;;;;;;;7.68;4.65;;;;;;;6.57;100.00;99098.09;6198009;22;20592;-68
2024/02/15 09:55:04;;;;;;;8.93;5.10;;;;;;;7.06;100.00;99156.66;6200725;22;20014;-66
2024/02/15 09:57:33;;;;;;;8.52;4.97;;;;;;;7.20;100.00;99160.03;6225033;22;20024;-65
2024/02/15 09:59:59;;;;;;;6.85;4.43;;;;;;;7.00;100.00;99112.31;6200539;22;20014;-67
2024/02/15 10:02:27;;;;;;;7.32;4.50;;;;;;;7.31;100.00;99162.66;6251123;22;20266;-66
2024/02/15 10:04:56;;;;;;;9.60;5.20;;;;;;;7.36;98.08;99149.41;6200071;22;20120;-65
2024/02/15 10:07:24;;;;;;;8.83;5.53;;;;;;;7.08;96.57;99105.66;6222999;22;20022;-68
2024/02/15 10:09:51;;;;;;;8.52;4.60;;;;;;;7.46;96.06;99150.38;6223411;22;20015;-65
2024/02/15 10:12:18;;;;;;;8.48;4.25;;;;;;;7.50;96.80;99141.44;6225236;22;20783;-67
2024/02/15 10:14:51;;;;;;;7.85;4.43;;;;;;;7.63;95.67;99137.03;6199587;22;20011;-67
2024/02/15 10:17:19;;;;;;;7.85;3.97;;;;;;;7.74;94.85;99143.16;6224381;22;20038;-66
2024/02/15 10:19:49;;;;;;;8.65;4.30;;;;;;;7.81;92.29;99136.59;6225711;22;20643;-64
2024/02/15 10:22:15;;;;;;;6.80;3.95;;;;;;;7.98;90.59;99136.16;6227715;22;20603;-66
2024/02/15 10:24:43;;;;;;;7.05;4.30;;;;;;;7.73;88.03;99088.00;6255598;22;20441;-65
2024/02/15 10:27:10;;;;;;;8.55;4.50;;;;;;;8.04;88.94;99134.88;6225658;22;20389;-68
2024/02/15 10:29:36;;;;;;;8.82;4.20;;;;;;;8.15;89.97;99136.66;6227113;22;20008;-64
2024/02/15 10:32:10;;;;;;;9.70;4.28;;;;;;;8.24;90.41;99135.97;6224900;22;20008;-66
2024/02/15 10:34:44;;;;;;;7.38;4.07;;;;;;;8.03;90.25;99074.50;6226948;22;20015;-67
2024/02/15 10:37:11;;;;;;;7.95;4.20;;;;;;;8.43;89.13;99130.22;6200492;22;20050;-66
2024/02/15 10:39:37;;;;;;;9.05;4.60;;;;;;;8.52;86.56;99126.09;6226202;22;20023;-65
2024/02/15 10:42:06;;;;;;;8.65;4.90;;;;;;;8.57;86.00;99122.19;6254513;22;20008;-67
2024/02/15 10:44:34;;;;;;;8.48;4.30;;;;;;;8.57;85.76;99119.59;6225923;22;20794;-67
2024/02/15 10:47:06;;;;;;;10.07;5.05;;;;;;;8.68;86.29;99115.38;6228833;22;20014;-67
2024/02/15 10:49:32;;;;;;;11.05;5.43;;;;;;;8.75;86.45;99117.34;6227533;22;20689;-65
2024/02/15 10:51:58;;;;;;;10.75;5.40;;;;;;;8.72;86.53;99114.16;6227010;22;20091;-67
2024/02/15 10:54:46;;;;;;;8.60;4.63;;;;;;;8.84;85.20;99121.00;6201270;22;20004;-65
2024/02/15 10:57:18;;;;;;;7.32;4.00;;;;;;;8.73;81.00;99126.22;6201590;22;20015;-65
2024/02/15 11:00:10;;;;;;;6.20;3.38;;;;;;;8.71;82.00;99128.09;6227862;22;20003;-66
2024/02/15 11:02:49;;;;;;;7.20;3.95;;;;;;;8.57;87.00;99123.97;6228584;22;20252;-65
2024/02/15 11:05:20;;;;;;;7.65;4.25;;;;;;;8.52;89.35;99120.91;6221062;22;20010;-65
2024/02/15 11:07:46;;;;;;;8.25;4.38;;;;;;;8.42;89.97;99119.03;6210060;22;20190;-64
2024/02/15 11:10:16;;;;;;;8.63;4.03;;;;;;;8.13;89.36;99072.03;6233535;22;20095;-68
2024/02/15 11:12:43;;;;;;;8.90;4.30;;;;;;;8.61;87.42;99122.78;6231740;22;20003;-64
2024/02/15 11:15:12;;;;;;;9.70;4.68;;;;;;;8.77;88.00;99122.41;6206413;22;20373;-66
2024/02/15 11:17:39;;;;;;;7.00;3.63;;;;;;;8.83;80.82;99117.59;6232040;22;20127;-66
2024/02/15 11:20:09;;;;;;;8.55;4.15;;;;;;;8.87;82.68;99102.59;6259707;22;20162;-65
2024/02/15 11:22:37;;;;;;;7.70;4.20;;;;;;;9.08;79.37;99107.84;6207762;22;20015;-65
2024/02/15 11:25:08;;;;;;;8.35;4.57;;;;;;;9.18;77.87;99097.53;6208026;22;20016;-65
2024/02/15 11:27:38;;;;;;;7.25;3.80;;;;;;;9.32;77.25;99101.63;6203308;22;20007;-65
2024/02/15 11:30:09;;;;;;;;;;;;;;;9.45;77.54;99083.28;6230345;22;20008;-65
2024/02/15 11:32:53;;;;;;;5.90;3.20;;;;;;;9.53;74.69;99076.50;6206712;22;19914;-66
2024/02/15 11:35:25;;;;;;;9.65;3.85;;;;;;;9.52;73.82;99077.44;6207314;22;20019;-65
2024/02/15 11:40:17;;;;;;;7.75;3.90;;;;;;;9.45;76.37;99034.78;6259047;22;20107;-66
2024/02/15 11:42:46;;;;;;;8.07;4.18;;;;;;;9.69;76.15;99072.63;6231682;22;20499;-64
2024/02/15 11:45:14;;;;;;;8.70;4.43;;;;;;;9.74;75.86;99068.69;6207315;22;20014;-65